Time;durP1;ratioP1;P1;durP2;ratioP2;P2;SDS_P1;SDS_P2;PMS_P1;PMS_P2;Temp;Humidity;BMP_temperature;BMP_pressure;BME280_temperature;BME280_humidity;BME280_pressure;Samples;Min_cycle;Max_cycle;Signal;HPM_P1;HPM_P2
2022/11/21 00:01:19;;;;;;;0.10;0.10;;;;;;;-2.59;73.04;100296.63;6149529;23;20465;-69
2022/11/21 00:03:45;;;;;;;0.10;0.10;;;;;;;-2.58;73.32;100305.50;6176148;23;20021;-69
2022/11/21 00:06:11;;;;;;;0.20;0.20;;;;;;;-2.57;73.54;100304.50;6177755;23;20488;-69
2022/11/21 00:08:37;;;;;;;0.20;0.20;;;;;;;-2.55;73.41;100320.41;6179506;23;20229;-69
2022/11/21 00:11:03;;;;;;;0.10;0.10;;;;;;;-2.53;73.53;100321.88;6174872;23;20032;-69
2022/11/21 00:13:29;;;;;;;0.45;0.10;;;;;;;-2.52;73.47;100318.19;6184074;23;20469;-69
2022/11/21 00:16:02;;;;;;;0.10;0.10;;;;;;;-2.51;73.63;100324.38;6183919;23;20589;-69
2022/11/21 00:18:28;;;;;;;0.10;0.10;;;;;;;-2.51;73.44;100319.03;6185717;23;20593;-69
2022/11/21 00:20:54;;;;;;;0.10;0.10;;;;;;;-2.55;73.75;100313.19;6183980;23;20095;-70
2022/11/21 00:23:20;;;;;;;0.80;0.30;;;;;;;-2.49;73.80;100317.84;6176710;23;20021;-70
2022/11/21 00:25:46;;;;;;;0.20;0.20;;;;;;;-2.48;73.80;100324.03;6148391;23;20514;-70
2022/11/21 00:28:12;;;;;;;0.20;0.20;;;;;;;-2.46;73.71;100305.94;6158813;23;20068;-70
2022/11/21 00:30:38;;;;;;;0.20;0.20;;;;;;;-2.48;73.74;100303.44;6122328;23;20025;-69
2022/11/21 00:33:05;;;;;;;0.20;0.20;;;;;;;-2.49;73.65;100301.78;6182918;23;20020;-70
2022/11/21 00:35:31;;;;;;;0.20;0.20;;;;;;;-2.48;73.87;100292.75;6151574;23;20544;-70
2022/11/21 00:37:57;;;;;;;0.10;0.10;;;;;;;-2.43;73.91;100308.25;6183531;23;20029;-70
2022/11/21 00:40:23;;;;;;;0.10;0.10;;;;;;;-2.42;73.81;100310.75;6183438;23;20016;-70
2022/11/21 00:42:49;;;;;;;0.20;0.20;;;;;;;-2.55;73.71;100293.63;6184352;23;20083;-70
2022/11/21 00:45:15;;;;;;;0.20;0.20;;;;;;;-2.36;73.83;100305.69;6148475;23;20025;-71
2022/11/21 00:47:41;;;;;;;0.10;0.10;;;;;;;-2.29;73.67;100315.53;6173856;23;20095;-70
2022/11/21 00:50:09;;;;;;;0.20;0.20;;;;;;;-2.33;73.71;100308.88;6174388;23;20029;-69
2022/11/21 00:52:35;;;;;;;0.10;0.10;;;;;;;-2.25;73.72;100302.63;6184742;23;20020;-69
2022/11/21 00:55:01;;;;;;;0.20;0.20;;;;;;;-2.23;73.45;100314.00;6149123;23;20356;-70
2022/11/21 00:57:29;;;;;;;0.10;0.10;;;;;;;-2.33;73.45;100314.22;6176658;23;20029;-69
2022/11/21 00:59:55;;;;;;;0.10;0.10;;;;;;;-2.40;73.49;100301.72;6127408;23;20040;-70
2022/11/21 01:02:21;;;;;;;0.20;0.20;;;;;;;-2.37;73.75;100288.81;6149708;23;20021;-70
2022/11/21 01:04:47;;;;;;;0.10;0.10;;;;;;;-2.34;73.83;100274.22;6148986;23;20116;-70
2022/11/21 01:07:14;;;;;;;0.17;0.17;;;;;;;-2.32;73.60;100281.06;6150582;23;20099;-70
2022/11/21 01:09:40;;;;;;;0.13;0.13;;;;;;;-2.28;73.38;100281.56;6187234;23;20020;-70
2022/11/21 01:12:06;;;;;;;0.10;0.10;;;;;;;-2.29;73.46;100286.06;6148193;23;20024;-69
2022/11/21 01:14:32;;;;;;;0.10;0.10;;;;;;;-2.25;73.55;100288.41;6160391;23;20126;-69
2022/11/21 01:16:58;;;;;;;0.17;0.17;;;;;;;-2.32;73.66;100277.56;6150474;23;20021;-69
2022/11/21 01:19:24;;;;;;;0.10;0.10;;;;;;;-2.25;73.56;100283.88;6185105;23;20040;-69
2022/11/21 01:21:50;;;;;;;0.10;0.10;;;;;;;-2.31;73.41;100289.94;6160994;23;20021;-69
2022/11/21 01:24:18;;;;;;;0.20;0.20;;;;;;;-2.38;73.42;100287.16;6174254;23;20053;-69
2022/11/21 01:26:44;;;;;;;0.10;0.10;;;;;;;-2.38;73.73;100281.78;6174354;23;20107;-69
2022/11/21 01:29:10;;;;;;;0.10;0.10;;;;;;;-2.35;73.54;100278.75;6184543;23;20021;-69
2022/11/21 01:31:37;;;;;;;0.10;0.10;;;;;;;-2.35;73.60;100267.19;6176069;23;20033;-69
2022/11/21 01:34:03;;;;;;;0.10;0.10;;;;;;;-2.32;73.63;100246.25;6183545;23;20021;-69
2022/11/21 01:36:31;;;;;;;0.10;0.10;;;;;;;-2.38;73.43;100238.94;6183878;23;20021;-69
2022/11/21 01:39:00;;;;;;;0.10;0.10;;;;;;;-2.38;73.86;100256.84;6174118;23;20052;-70
2022/11/21 01:41:32;;;;;;;0.10;0.10;;;;;;;-2.45;73.96;100243.31;6123523;23;20361;-70
2022/11/21 01:43:58;;;;;;;0.10;0.10;;;;;;;-2.53;73.98;100232.69;6163170;23;20479;-69
2022/11/21 01:46:25;;;;;;;0.10;0.10;;;;;;;-2.61;74.02;100229.03;6160273;23;20013;-69
2022/11/21 01:48:56;;;;;;;0.20;0.20;;;;;;;-2.68;74.24;100221.88;6187609;23;20021;-69
2022/11/21 01:51:27;;;;;;;0.10;0.10;;;;;;;-2.78;74.44;100214.94;6177436;23;20033;-67
2022/11/21 01:53:58;;;;;;;0.10;0.10;;;;;;;-2.81;74.61;100214.44;6147713;23;20021;-67
2022/11/21 01:56:25;;;;;;;0.20;0.20;;;;;;;-2.81;74.61;100214.44;6159608;23;20513;-67
2022/11/21 01:58:55;;;;;;;0.10;0.10;;;;;;;-2.89;74.84;100220.69;6150922;23;20082;-67
2022/11/21 02:01:22;;;;;;;0.17;0.17;;;;;;;-2.94;74.95;100212.34;6185168;23;20755;-67
2022/11/21 02:03:49;;;;;;;0.10;0.10;;;;;;;-3.02;74.75;100219.41;6185988;23;20025;-67
2022/11/21 02:06:15;;;;;;;0.20;0.20;;;;;;;-3.13;75.08;100211.75;6187052;23;20085;-67
2022/11/21 02:08:43;;;;;;;0.10;0.10;;;;;;;-3.21;75.07;100215.31;6175509;23;20025;-67
2022/11/21 02:11:16;;;;;;;0.10;0.10;;;;;;;-3.27;75.52;100210.66;6158345;23;20025;-67
2022/11/21 02:13:42;;;;;;;0.10;0.10;;;;;;;-3.30;75.53;100216.38;6124422;23;20139;-67
2022/11/21 02:16:10;;;;;;;0.10;0.10;;;;;;;-3.35;75.77;100222.22;6186331;23;20029;-68
2022/11/21 02:18:36;;;;;;;0.10;0.10;;;;;;;-3.50;75.95;100194.53;6147348;23;20570;-67
2022/11/21 02:21:10;;;;;;;0.20;0.20;;;;;;;-3.38;76.10;100221.72;6146977;23;20021;-67
2022/11/21 02:23:43;;;;;;;0.17;0.17;;;;;;;-3.36;76.02;100217.03;6174335;23;20025;-67
2022/11/21 02:26:11;;;;;;;0.20;0.20;;;;;;;-3.33;75.92;100201.47;6147822;23;20021;-67
2022/11/21 02:28:37;;;;;;;0.10;0.10;;;;;;;-3.32;75.92;100194.31;6149940;23;20049;-67
2022/11/21 02:31:03;;;;;;;0.20;0.20;;;;;;;-3.36;76.23;100190.28;6177123;23;20044;-67
2022/11/21 02:33:29;;;;;;;0.10;0.10;;;;;;;-3.37;76.42;100196.66;6174975;23;20304;-66
2022/11/21 02:35:57;;;;;;;0.20;0.20;;;;;;;-3.35;76.49;100189.31;6186993;23;20100;-67
2022/11/21 02:38:26;;;;;;;0.10;0.10;;;;;;;-3.34;76.11;100186.44;6186186;23;20044;-67
2022/11/21 02:40:57;;;;;;;0.10;0.10;;;;;;;-3.28;76.09;100188.44;6125369;23;20021;-67
2022/11/21 02:43:29;;;;;;;0.10;0.10;;;;;;;-3.26;76.07;100190.94;6188381;23;20305;-67
2022/11/21 02:45:55;;;;;;;0.10;0.10;;;;;;;-3.30;75.93;100201.13;6148665;23;20024;-67
2022/11/21 02:48:21;;;;;;;0.10;0.10;;;;;;;-3.25;75.85;100199.81;6149944;23;20436;-67
2022/11/21 02:50:47;;;;;;;0.20;0.20;;;;;;;-3.21;75.79;100207.28;6151556;23;20104;-67
2022/11/21 02:53:15;;;;;;;0.20;0.20;;;;;;;-3.18;75.75;100198.06;6147751;23;20404;-67
2022/11/21 02:55:42;;;;;;;0.20;0.20;;;;;;;-3.13;75.72;100191.19;6145632;23;20052;-67
2022/11/21 02:58:09;;;;;;;0.20;0.20;;;;;;;-3.08;75.47;100179.97;6178794;23;20021;-67
2022/11/21 03:00:37;;;;;;;0.10;0.10;;;;;;;-3.08;75.48;100184.47;6151643;23;20055;-67
2022/11/21 03:03:04;;;;;;;0.17;0.17;;;;;;;-3.09;75.53;100177.47;6149449;23;20032;-67
2022/11/21 03:05:30;;;;;;;0.20;0.20;;;;;;;-3.17;75.26;100173.00;6184731;23;20052;-67
2022/11/21 03:07:56;;;;;;;0.20;0.20;;;;;;;-3.24;74.91;100182.75;6183564;23;20028;-67
2022/11/21 03:10:22;;;;;;;0.20;0.20;;;;;;;-3.34;75.25;100181.09;6122613;23;20032;-67
2022/11/21 03:12:48;;;;;;;0.10;0.10;;;;;;;-3.40;75.30;100180.97;6183301;23;20059;-67
2022/11/21 03:15:15;;;;;;;0.10;0.10;;;;;;;-3.51;75.36;100177.69;6172127;23;20099;-67
2022/11/21 03:17:42;;;;;;;0.10;0.10;;;;;;;-3.42;75.57;100191.84;6156834;23;20107;-67
2022/11/21 03:20:09;;;;;;;0.10;0.10;;;;;;;-3.47;75.15;100195.03;6174280;23;20016;-67
2022/11/21 03:22:35;;;;;;;0.10;0.10;;;;;;;-3.45;75.22;100182.31;6174138;23;20048;-67
2022/11/21 03:25:01;;;;;;;0.10;0.10;;;;;;;-3.35;74.99;100174.09;6175346;23;20016;-67
2022/11/21 03:27:29;;;;;;;0.10;0.10;;;;;;;-3.38;74.76;100176.25;6173597;23;20024;-67
2022/11/21 03:29:55;;;;;;;0.10;0.10;;;;;;;-3.48;74.82;100181.81;6183774;23;20021;-67
2022/11/21 03:32:21;;;;;;;0.10;0.10;;;;;;;-3.44;74.63;100185.81;6183886;23;20484;-67
2022/11/21 03:34:49;;;;;;;0.10;0.10;;;;;;;-3.49;74.62;100181.00;6144038;23;20021;-67
2022/11/21 03:37:15;;;;;;;0.15;0.15;;;;;;;-3.40;74.42;100197.84;6182634;23;20527;-67
2022/11/21 03:39:41;;;;;;;0.10;0.10;;;;;;;-3.34;74.34;100207.03;6148172;23;20112;-67
2022/11/21 03:42:07;;;;;;;0.10;0.10;;;;;;;-3.36;74.34;100207.19;6174418;23;20025;-67
2022/11/21 03:44:33;;;;;;;0.10;0.10;;;;;;;-3.38;74.41;100213.72;6185276;23;20087;-68
2022/11/21 03:46:59;;;;;;;0.10;0.10;;;;;;;-3.38;74.05;100214.56;6176526;23;20079;-67
2022/11/21 03:49:25;;;;;;;0.10;0.10;;;;;;;-3.39;74.05;100210.22;6185327;23;20021;-67
2022/11/21 03:51:53;;;;;;;0.10;0.10;;;;;;;-3.40;73.79;100213.06;6148757;23;20023;-67
2022/11/21 03:54:19;;;;;;;0.10;0.10;;;;;;;-3.43;73.56;100206.22;6185220;23;20017;-67
2022/11/21 03:56:45;;;;;;;0.15;0.15;;;;;;;-3.47;73.27;100204.88;6173908;23;20021;-67
2022/11/21 03:59:11;;;;;;;0.13;0.13;;;;;;;-3.56;73.44;100207.59;6185371;23;20076;-67
2022/11/21 04:01:37;;;;;;;0.13;0.13;;;;;;;-3.57;73.86;100203.25;6184563;23;20021;-70
2022/11/21 04:04:03;;;;;;;0.10;0.10;;;;;;;-3.46;73.74;100204.72;6176141;23;20047;-69
2022/11/21 04:06:30;;;;;;;0.10;0.10;;;;;;;-3.48;73.42;100190.69;6174336;23;20184;-69
2022/11/21 04:08:58;;;;;;;0.10;0.10;;;;;;;-3.43;73.84;100193.69;6172635;23;20028;-70
2022/11/21 04:11:24;;;;;;;0.10;0.10;;;;;;;-3.42;73.78;100195.34;6176441;23;20212;-69
2022/11/21 04:13:50;;;;;;;0.17;0.17;;;;;;;-3.40;73.67;100184.47;6181684;23;20271;-70
2022/11/21 04:16:16;;;;;;;0.10;0.10;;;;;;;-3.32;73.70;100183.63;6156293;23;20020;-70
2022/11/21 04:18:42;;;;;;;0.10;0.10;;;;;;;-3.36;73.46;100187.63;6186529;23;20256;-69
2022/11/21 04:21:09;;;;;;;0.10;0.10;;;;;;;-3.40;73.85;100184.47;6125254;23;20021;-69
2022/11/21 04:23:35;;;;;;;0.10;0.10;;;;;;;-3.37;73.87;100196.66;6185494;23;20484;-70
2022/11/21 04:26:03;;;;;;;0.10;0.10;;;;;;;-3.37;73.86;100183.28;6184656;23;20021;-71
2022/11/21 04:28:29;;;;;;;0.10;0.10;;;;;;;-3.34;73.71;100175.75;6148279;23;20044;-69
2022/11/21 04:31:00;;;;;;;0.10;0.10;;;;;;;-3.34;73.25;100186.44;6176711;23;20495;-69
2022/11/21 04:33:26;;;;;;;0.10;0.10;;;;;;;-3.36;73.10;100187.63;6171976;23;20046;-70
2022/11/21 04:35:52;;;;;;;0.10;0.10;;;;;;;-3.38;72.96;100170.91;6183136;23;20132;-70
2022/11/21 04:38:18;;;;;;;0.10;0.10;;;;;;;-3.42;72.87;100160.56;6182459;23;20060;-70
2022/11/21 04:40:44;;;;;;;0.10;0.10;;;;;;;-3.49;73.04;100164.13;6171347;23;20028;-70
2022/11/21 04:43:12;;;;;;;0.10;0.10;;;;;;;-3.46;72.98;100164.63;6169055;23;20044;-69
2022/11/21 04:45:38;;;;;;;0.15;0.15;;;;;;;-3.52;72.87;100154.59;6180663;23;20021;-69
2022/11/21 04:48:04;;;;;;;0.10;0.10;;;;;;;-3.45;72.90;100165.44;6186740;23;20020;-69
2022/11/21 04:50:31;;;;;;;0.10;0.10;;;;;;;-3.48;73.01;100155.94;6144632;23;20017;-70
2022/11/21 04:52:57;;;;;;;0.10;0.10;;;;;;;-3.50;72.97;100157.09;6155003;23;20099;-69
2022/11/21 04:55:28;;;;;;;0.15;0.15;;;;;;;-3.51;73.05;100158.13;6186381;23;20108;-69
2022/11/21 04:57:54;;;;;;;0.10;0.10;;;;;;;-3.54;73.35;100164.63;6188263;23;20074;-69
2022/11/21 05:00:21;;;;;;;0.10;0.10;;;;;;;-3.53;73.34;100152.09;6184535;23;20017;-68
2022/11/21 05:02:47;;;;;;;0.10;0.10;;;;;;;-3.42;73.03;100157.91;6176076;23;20496;-68
2022/11/21 05:05:13;;;;;;;0.20;0.20;;;;;;;-3.35;72.68;100163.38;6176624;23;20099;-68
2022/11/21 05:07:40;;;;;;;0.10;0.10;;;;;;;-3.37;72.82;100162.72;6150312;23;20021;-67
2022/11/21 05:10:07;;;;;;;0.10;0.10;;;;;;;-3.32;72.71;100162.22;6141221;23;20568;-68
2022/11/21 05:15:18;;;;;;;0.10;0.10;;;;;;;-3.21;72.47;100156.44;6180702;23;20021;-68
2022/11/21 05:17:45;;;;;;;0.10;0.10;;;;;;;-3.25;72.42;100155.13;6146971;23;20026;-70
2022/11/21 05:20:12;;;;;;;0.10;0.10;;;;;;;-3.25;72.38;100160.50;6183470;23;20509;-70
2022/11/21 05:22:38;;;;;;;0.10;0.10;;;;;;;-3.28;72.38;100158.16;6150087;23;20036;-70
2022/11/21 05:25:05;;;;;;;0.10;0.10;;;;;;;-3.30;72.63;100160.19;6176151;23;20076;-70
2022/11/21 05:27:31;;;;;;;0.10;0.10;;;;;;;-3.30;72.60;100147.63;6178336;23;20080;-70
2022/11/21 05:29:57;;;;;;;0.10;0.10;;;;;;;-3.32;72.66;100154.19;6142851;23;20037;-69
2022/11/21 05:32:24;;;;;;;0.20;0.20;;;;;;;-3.42;72.65;100144.53;6159219;23;20068;-69
2022/11/21 05:34:51;;;;;;;0.20;0.20;;;;;;;-3.48;73.05;100147.06;6161389;23;20021;-69
2022/11/21 05:37:17;;;;;;;0.17;0.17;;;;;;;-3.49;72.99;100151.59;6162725;23;20522;-69
2022/11/21 05:39:43;;;;;;;0.20;0.20;;;;;;;-3.49;72.98;100140.91;6167161;23;20039;-69
2022/11/21 05:42:09;;;;;;;0.10;0.10;;;;;;;-3.46;72.97;100137.88;6137817;23;20456;-69
2022/11/21 05:44:35;;;;;;;0.10;0.10;;;;;;;-3.45;72.74;100150.22;6176071;23;20023;-69
2022/11/21 05:47:01;;;;;;;0.10;0.10;;;;;;;-3.49;72.71;100138.22;6185883;23;20057;-69
2022/11/21 05:49:28;;;;;;;0.10;0.10;;;;;;;-3.40;72.83;100149.72;6178105;23;20028;-69
2022/11/21 05:51:55;;;;;;;0.10;0.10;;;;;;;-3.40;72.82;100132.81;6186655;23;20075;-69
2022/11/21 05:54:21;;;;;;;0.10;0.10;;;;;;;-3.50;72.91;100127.69;6159501;23;20021;-69
2022/11/21 05:56:47;;;;;;;0.13;0.13;;;;;;;-3.53;73.14;100133.41;6186377;23;20024;-69
2022/11/21 05:59:13;;;;;;;0.20;0.20;;;;;;;-3.44;73.12;100140.34;6185428;23;20058;-70
2022/11/21 06:04:24;;;;;;;0.15;0.15;;;;;;;-3.34;72.53;100134.81;6183575;23;20392;-69
2022/11/21 06:06:50;;;;;;;0.10;0.10;;;;;;;-3.36;72.59;100148.34;6148013;23;20021;-69
2022/11/21 06:09:17;;;;;;;0.10;0.10;;;;;;;-3.40;73.01;100144.38;6176288;23;20086;-69
2022/11/21 06:11:43;;;;;;;0.20;0.20;;;;;;;-3.34;72.57;100140.97;6183713;23;20372;-69
2022/11/21 06:14:09;;;;;;;0.10;0.10;;;;;;;-3.37;72.42;100144.00;6162772;23;20044;-69
2022/11/21 06:16:35;;;;;;;0.20;0.20;;;;;;;-3.44;72.57;100138.53;6175651;23;20464;-69
2022/11/21 06:19:01;;;;;;;0.10;0.10;;;;;;;-3.42;72.66;100135.69;6146177;23;20036;-69
2022/11/21 06:21:28;;;;;;;0.65;0.25;;;;;;;-3.43;72.80;100134.03;6124317;23;20437;-69
2022/11/21 06:23:56;;;;;;;0.10;0.10;;;;;;;-3.31;72.78;100134.47;6149750;23;20419;-69
2022/11/21 06:26:25;;;;;;;0.10;0.10;;;;;;;-3.19;72.43;100145.59;6160771;23;20017;-69
2022/11/21 06:28:52;;;;;;;0.10;0.10;;;;;;;-3.10;72.13;100149.03;6128726;23;20451;-69
2022/11/21 06:31:20;;;;;;;0.10;0.10;;;;;;;-3.08;72.09;100141.66;6154632;23;20021;-69
2022/11/21 06:33:46;;;;;;;0.10;0.10;;;;;;;-3.12;71.86;100143.88;6152861;23;20075;-69
2022/11/21 06:36:14;;;;;;;0.20;0.20;;;;;;;-3.17;71.90;100139.06;6161982;23;20436;-69
2022/11/21 06:38:40;;;;;;;0.10;0.10;;;;;;;-3.15;71.97;100144.22;6188052;23;20029;-69
2022/11/21 06:41:10;;;;;;;0.10;0.10;;;;;;;-3.25;71.65;100143.63;6162097;23;20017;-69
2022/11/21 06:43:37;;;;;;;0.20;0.20;;;;;;;-3.30;72.01;100154.84;6152349;23;20065;-69
2022/11/21 06:46:04;;;;;;;0.20;0.20;;;;;;;-3.32;72.15;100138.16;6188687;23;20484;-69
2022/11/21 06:48:30;;;;;;;0.10;0.10;;;;;;;-3.29;72.11;100151.16;6188537;23;20400;-69
2022/11/21 06:50:57;;;;;;;0.10;0.10;;;;;;;-3.33;72.21;100153.34;6152848;23;20116;-69
2022/11/21 06:53:23;;;;;;;0.10;0.10;;;;;;;-3.32;72.28;100157.69;6188495;23;20025;-69
2022/11/21 06:55:49;;;;;;;0.10;0.10;;;;;;;-3.29;72.15;100159.19;6189276;23;20024;-69
2022/11/21 06:58:15;;;;;;;0.20;0.20;;;;;;;-3.33;72.04;100148.00;6178959;23;20112;-69
2022/11/21 07:00:43;;;;;;;0.10;0.10;;;;;;;-3.31;71.90;100145.16;6163513;23;20024;-69
2022/11/21 07:03:09;;;;;;;;;;;;;;;-3.32;71.94;100140.81;6180287;23;20349;-69
2022/11/21 07:05:35;;;;;;;0.10;0.10;;;;;;;-3.30;71.40;100136.94;6178019;23;19920;-69
2022/11/21 07:08:02;;;;;;;0.20;0.20;;;;;;;-3.32;71.48;100143.50;6186857;23;20076;-69
2022/11/21 07:10:29;;;;;;;0.20;0.20;;;;;;;-3.26;71.48;100148.13;6179309;23;20021;-69
2022/11/21 07:15:41;;;;;;;0.13;0.13;;;;;;;-3.11;70.98;100148.22;6151440;23;20571;-69
2022/11/21 07:18:08;;;;;;;0.10;0.10;;;;;;;-3.14;70.88;100143.22;6188883;23;20021;-68
2022/11/21 07:20:34;;;;;;;;;;;;;;;-3.16;71.16;100142.56;6162583;23;20021;-68
2022/11/21 07:23:00;;;;;;;0.10;0.10;;;;;;;-3.17;70.92;100124.84;6186479;23;20003;-69
2022/11/21 07:25:26;;;;;;;0.10;0.10;;;;;;;-3.06;70.65;100127.13;6187048;23;20514;-69
2022/11/21 07:27:52;;;;;;;0.20;0.20;;;;;;;-3.06;70.66;100150.34;6150416;23;20087;-69
2022/11/21 07:30:19;;;;;;;0.10;0.10;;;;;;;-3.06;70.62;100136.97;6158759;23;20029;-69
2022/11/21 07:32:44;;;;;;;0.28;0.28;;;;;;;-3.03;70.52;100155.38;6176471;23;20067;-69
2022/11/21 07:35:12;;;;;;;0.20;0.20;;;;;;;-3.05;70.44;100150.19;6180555;23;20330;-69
2022/11/21 07:37:41;;;;;;;;;;;;;;;-3.10;70.44;100149.03;6187896;23;20321;-69
2022/11/21 07:40:07;;;;;;;0.10;0.10;;;;;;;-3.14;70.32;100141.38;6151517;23;19970;-69
2022/11/21 07:42:33;;;;;;;0.10;0.10;;;;;;;-3.13;70.25;100150.22;6152371;23;20103;-69
2022/11/21 07:44:59;;;;;;;0.13;0.13;;;;;;;-3.06;70.42;100137.81;6178493;23;20048;-69
2022/11/21 07:47:25;;;;;;;0.17;0.10;;;;;;;-3.02;70.02;100127.59;6161778;23;20021;-69
2022/11/21 07:49:51;;;;;;;0.10;0.10;;;;;;;-2.91;69.97;100137.88;6150895;23;20028;-69
2022/11/21 07:52:19;;;;;;;0.10;0.10;;;;;;;-2.88;69.78;100134.88;6177129;23;20021;-69
2022/11/21 07:54:45;;;;;;;0.20;0.20;;;;;;;-2.82;69.96;100138.66;6151881;23;20636;-69
2022/11/21 07:57:11;;;;;;;0.20;0.20;;;;;;;-2.72;69.63;100144.59;6187759;23;20388;-69
2022/11/21 07:59:37;;;;;;;0.38;0.20;;;;;;;-2.58;69.47;100147.53;6189048;23;20088;-68
2022/11/21 08:02:03;;;;;;;0.10;0.10;;;;;;;-2.58;69.15;100139.47;6152647;23;20021;-69
2022/11/21 08:04:29;;;;;;;0.20;0.20;;;;;;;-2.59;69.39;100135.97;6160840;23;20021;-69
2022/11/21 08:06:55;;;;;;;0.10;0.10;;;;;;;-2.53;68.97;100136.28;6188191;23;20028;-69
2022/11/21 08:09:27;;;;;;;0.10;0.10;;;;;;;-2.50;69.11;100138.59;6177763;23;20025;-69
2022/11/21 08:11:53;;;;;;;0.10;0.10;;;;;;;-2.40;68.81;100143.69;6178436;23;20045;-70
2022/11/21 08:14:20;;;;;;;0.10;0.10;;;;;;;-2.34;68.51;100133.06;6188668;23;20020;-69
2022/11/21 08:16:46;;;;;;;0.10;0.10;;;;;;;-2.37;68.05;100132.59;6161429;23;20016;-69
2022/11/21 08:19:12;;;;;;;0.20;0.20;;;;;;;-2.37;67.52;100136.13;6152836;23;20112;-69
2022/11/21 08:21:37;;;;;;;0.10;0.10;;;;;;;-2.44;67.59;100137.84;6187992;23;20025;-69
2022/11/21 08:24:09;;;;;;;0.20;0.20;;;;;;;-2.47;67.73;100124.81;6152011;23;20028;-69
2022/11/21 08:26:36;;;;;;;0.20;0.20;;;;;;;-2.40;67.66;100136.50;6186715;23;20021;-69
2022/11/21 08:29:02;;;;;;;0.20;0.20;;;;;;;-2.38;67.58;100131.78;6103461;23;20025;-69
2022/11/21 08:31:28;;;;;;;0.10;0.10;;;;;;;-2.27;67.68;100122.47;6188699;23;20360;-69
2022/11/21 08:33:55;;;;;;;0.20;0.20;;;;;;;-2.18;67.13;100120.53;6176795;23;20021;-69
2022/11/21 08:36:21;;;;;;;0.20;0.20;;;;;;;-2.26;66.87;100121.44;6126515;23;20392;-69
2022/11/21 08:38:47;;;;;;;0.20;0.20;;;;;;;-2.25;66.84;100130.34;6178709;23;20047;-69
2022/11/21 08:43:59;;;;;;;0.52;0.20;;;;;;;-2.09;66.62;100142.72;6179010;23;20098;-69
2022/11/21 08:46:27;;;;;;;0.28;0.28;;;;;;;-2.03;66.73;100141.97;6162379;23;20021;-69
2022/11/21 08:48:53;;;;;;;0.10;0.10;;;;;;;-2.01;66.20;100146.16;6178505;23;20020;-69
2022/11/21 08:51:19;;;;;;;0.22;0.22;;;;;;;-2.04;66.23;100137.63;6187945;23;20021;-69
2022/11/21 08:53:45;;;;;;;0.10;0.10;;;;;;;-2.03;66.45;100140.16;6176614;23;20027;-69
2022/11/21 08:56:12;;;;;;;0.20;0.20;;;;;;;-1.97;66.25;100132.38;6187320;23;20025;-69
2022/11/21 08:58:39;;;;;;;0.20;0.20;;;;;;;-1.89;66.25;100143.03;6161801;23;20112;-69
2022/11/21 09:01:06;;;;;;;0.20;0.20;;;;;;;-1.86;66.24;100122.03;6189897;23;20017;-69
2022/11/21 09:03:32;;;;;;;0.30;0.30;;;;;;;-1.60;65.51;100134.13;6187022;23;20021;-69
2022/11/21 09:05:59;;;;;;;0.10;0.10;;;;;;;-1.54;65.46;100129.88;6180141;23;20040;-69
2022/11/21 09:08:25;;;;;;;0.20;0.20;;;;;;;-1.41;65.20;100131.88;6163695;23;20025;-69
2022/11/21 09:10:52;;;;;;;0.10;0.10;;;;;;;-1.22;64.49;100132.31;6151427;23;20017;-69
2022/11/21 09:13:18;;;;;;;0.20;0.20;;;;;;;-1.15;64.27;100127.84;6187832;23;20035;-69
2022/11/21 09:18:30;;;;;;;0.45;0.22;;;;;;;-1.19;63.78;100091.69;6152749;23;20028;-69
2022/11/21 09:20:56;;;;;;;0.20;0.20;;;;;;;-1.08;63.50;100115.34;6189565;23;20043;-70
2022/11/21 09:23:22;;;;;;;0.20;0.20;;;;;;;-1.17;63.59;100117.31;6188359;23;20024;-70
2022/11/21 09:25:48;;;;;;;0.25;0.20;;;;;;;-1.21;63.55;100104.47;6178637;23;20032;-69
2022/11/21 09:28:15;;;;;;;0.10;0.10;;;;;;;-1.19;63.54;100108.59;6189731;23;20413;-69
2022/11/21 09:30:41;;;;;;;0.20;0.20;;;;;;;-1.18;64.02;100104.06;6155234;23;20556;-69
2022/11/21 09:33:10;;;;;;;0.20;0.20;;;;;;;-1.11;64.50;100101.47;6153323;23;20088;-69
2022/11/21 09:35:38;;;;;;;0.20;0.20;;;;;;;-1.17;64.04;100098.53;6163756;23;20275;-69
2022/11/21 09:38:05;;;;;;;0.13;0.13;;;;;;;-1.43;64.21;100099.03;6179183;23;20032;-69
2022/11/21 09:40:32;;;;;;;0.20;0.20;;;;;;;-1.43;64.62;100105.25;6153696;23;20103;-69
2022/11/21 09:43:18;;;;;;;0.30;0.30;;;;;;;-1.45;64.75;100106.44;6188863;23;20472;-69
2022/11/21 09:45:47;;;;;;;0.10;0.10;;;;;;;-1.60;64.27;100103.81;6190387;23;20100;-69
2022/11/21 09:48:17;;;;;;;0.10;0.10;;;;;;;-1.64;64.88;100097.97;6188195;23;20483;-69
2022/11/21 09:50:49;;;;;;;0.10;0.10;;;;;;;-1.63;64.60;100096.97;6126123;23;20311;-69
2022/11/21 09:53:20;;;;;;;0.28;0.20;;;;;;;-1.71;64.83;100091.72;6189449;23;20017;-69
2022/11/21 09:55:50;;;;;;;0.20;0.20;;;;;;;-1.68;64.90;100090.50;6178554;23;20364;-69
2022/11/21 09:58:26;;;;;;;0.10;0.10;;;;;;;-1.72;64.95;100090.88;6188482;23;20017;-70
2022/11/21 10:00:53;;;;;;;0.10;0.10;;;;;;;-1.64;65.03;100100.66;6153614;23;20426;-69
2022/11/21 10:03:22;;;;;;;0.10;0.10;;;;;;;-1.68;64.86;100102.06;6138131;23;20021;-69
2022/11/21 10:05:54;;;;;;;0.10;0.10;;;;;;;-1.77;64.90;100090.59;6150580;23;20083;-69
2022/11/21 10:08:32;;;;;;;0.10;0.10;;;;;;;-1.88;64.99;100069.63;6153188;23;20063;-69
2022/11/21 10:11:11;;;;;;;0.10;0.10;;;;;;;-1.84;64.77;100075.44;6129549;23;20024;-69
2022/11/21 10:13:52;;;;;;;0.85;0.20;;;;;;;-1.87;64.99;100066.78;6190562;23;20013;-69
2022/11/21 10:16:30;;;;;;;0.20;0.20;;;;;;;-1.83;64.93;100072.56;6153592;23;20415;-69
2022/11/21 10:19:22;;;;;;;0.10;0.10;;;;;;;-1.79;64.50;100075.72;6178441;23;20381;-69
2022/11/21 10:22:07;;;;;;;0.10;0.10;;;;;;;-1.88;64.60;100078.47;6178561;23;20066;-69
2022/11/21 10:24:42;;;;;;;0.10;0.10;;;;;;;-1.94;64.89;100081.09;6160866;23;20017;-69
2022/11/21 10:27:15;;;;;;;0.10;0.10;;;;;;;-2.09;65.13;100084.63;6103174;23;20029;-69
2022/11/21 10:29:47;;;;;;;0.10;0.10;;;;;;;-2.13;65.27;100077.94;6149120;23;20031;-69
2022/11/21 10:32:21;;;;;;;0.20;0.20;;;;;;;-2.16;65.40;100067.59;6185066;23;20025;-69
2022/11/21 10:34:51;;;;;;;0.10;0.10;;;;;;;-2.12;65.71;100054.66;6152953;23;20024;-69
2022/11/21 10:37:37;;;;;;;0.10;0.10;;;;;;;-2.02;65.36;100063.28;6152664;23;20276;-69
2022/11/21 10:40:15;;;;;;;0.10;0.10;;;;;;;-2.07;65.21;100058.47;6177903;23;20029;-69
2022/11/21 10:42:49;;;;;;;0.10;0.10;;;;;;;-2.06;65.23;100041.34;6186641;23;20508;-69
2022/11/21 10:45:15;;;;;;;0.10;0.10;;;;;;;-2.00;64.80;100050.50;6176381;23;20105;-69
2022/11/21 10:47:41;;;;;;;0.10;0.10;;;;;;;-2.04;64.88;100049.19;6134198;23;20025;-69
2022/11/21 10:50:28;;;;;;;0.17;0.17;;;;;;;-2.14;65.27;100047.66;6151061;23;20021;-69
2022/11/21 10:54:31;;;;;;;1.40;0.30;;;;;;;-2.21;65.67;100051.25;6178447;23;20025;-69
2022/11/21 10:55:58;;;;;;;0.10;0.10;;;;;;;-2.15;65.70;100037.94;6163863;23;20021;-69
2022/11/21 10:58:33;;;;;;;0.10;0.10;;;;;;;-2.19;65.82;100047.34;6178411;23;20024;-69
2022/11/21 11:00:59;;;;;;;0.10;0.10;;;;;;;-2.20;65.68;100045.69;6178104;23;20021;-69
2022/11/21 11:03:28;;;;;;;0.10;0.10;;;;;;;-2.24;66.12;100032.88;6179049;23;20096;-69
2022/11/21 11:05:57;;;;;;;0.10;0.10;;;;;;;-2.25;66.23;100029.34;6179125;23;20096;-69
2022/11/21 11:08:26;;;;;;;0.20;0.20;;;;;;;-2.21;66.17;100027.13;6152835;23;20031;-69
2022/11/21 11:11:04;;;;;;;0.20;0.20;;;;;;;-2.22;66.43;100022.78;6179776;23;20031;-69
2022/11/21 11:13:32;;;;;;;0.10;0.10;;;;;;;-2.17;66.39;100023.06;6188415;23;20021;-69
2022/11/21 11:16:01;;;;;;;;;;;;;;;-2.14;66.26;100011.97;6188071;23;20056;-69
2022/11/21 11:18:28;;;;;;;0.20;0.20;;;;;;;-2.15;66.02;100005.78;6176598;23;19926;-69
2022/11/21 11:21:10;;;;;;;0.20;0.20;;;;;;;-2.14;65.96;100009.28;6151824;23;20032;-69
2022/11/21 11:23:38;;;;;;;0.10;0.10;;;;;;;-2.17;66.20;100009.66;6176369;23;20347;-69
2022/11/21 11:26:21;;;;;;;0.20;0.20;;;;;;;-2.22;66.13;100012.06;6178827;23;20024;-69
2022/11/21 11:28:47;;;;;;;0.20;0.20;;;;;;;-2.29;66.06;100018.16;6177884;23;20293;-69
2022/11/21 11:31:13;;;;;;;0.10;0.10;;;;;;;-2.30;66.16;100003.09;6162940;23;20021;-69
2022/11/21 11:33:48;;;;;;;0.15;0.15;;;;;;;-2.28;66.19;100002.94;6188206;23;20025;-69
2022/11/21 11:36:33;;;;;;;0.13;0.13;;;;;;;-2.37;66.19;99996.84;6127876;23;20052;-69
2022/11/21 11:39:18;;;;;;;0.20;0.20;;;;;;;-2.21;66.45;99992.31;6160669;23;20035;-69
2022/11/21 11:47:53;;;;;;;0.10;0.10;;;;;;;-2.19;65.97;100001.81;6187257;23;20021;-69
2022/11/21 11:50:23;;;;;;;0.10;0.10;;;;;;;-2.17;65.89;99999.78;6179741;23;20024;-69